Current Conditions
Mostly Scattered
Clouds



Pressure
1009.92 (hPa) - 29.82 (inHG)
Visibility

6.2 (mimiles) - 10.0 (km)
   Temperature
19  °C
66°F
12  °C
Dewpoint
64  %
 Humidity
   Wind Speed
14  mph
12  kts
23  km/h
6.3  m/s
   Wind Direction
 200°
South South
West
   Airport Data
EGTK
Location Oxford (Kidlington) 26 mi (41.83 km)
Metar :EGTK 231120Z 20012KT 170V230 9999 SCT029 19/12 Q1010
Mon 23rd September 12:20 pm
   Raw Metar Info
Raw METAR is the most common format in the world for the transmission of observational weather data. It is highly standardized through the International Civil Aviation Organization (ICAO), which allows it to be understood throughout most of the world.
   API Info
Data Provided by
https://www.checkwx.com/weather/EGTK
   © Info
CSS/SVG/PHP scripts were developed by weather34.com for use in the weather34 template © 2015-2019

Guide Info provided by Metar-Wikipedia